createdAt,value
2018-11-25T00:00:45.561Z,-0.07
2018-11-25T00:01:53.618Z,-0.04
2018-11-25T00:03:01.664Z,-0.10
2018-11-25T00:04:09.724Z,-0.04
2018-11-25T00:05:17.822Z,-0.10
2018-11-25T00:06:25.853Z,-0.08
2018-11-25T00:07:34.732Z,-0.10
2018-11-25T00:08:41.949Z,-0.08
2018-11-25T00:09:50.002Z,-0.08
2018-11-25T00:10:58.062Z,-0.05
2018-11-25T00:12:06.109Z,0.00
2018-11-25T00:13:14.179Z,-0.11
2018-11-25T00:14:22.257Z,0.02
2018-11-25T00:15:30.313Z,0.03
2018-11-25T00:16:38.347Z,0.02
2018-11-25T00:17:46.406Z,0.02
2018-11-25T00:18:54.452Z,0.07
2018-11-25T00:20:02.531Z,0.04
2018-11-25T00:21:10.571Z,0.08
2018-11-25T00:22:18.633Z,0.03
2018-11-25T00:23:26.687Z,0.07
2018-11-25T00:24:34.741Z,-0.04
2018-11-25T00:25:42.802Z,0.02
2018-11-25T00:26:50.865Z,0.00
2018-11-25T00:27:58.911Z,0.02
2018-11-25T00:29:06.967Z,0.03
2018-11-25T00:30:15.014Z,0.07
2018-11-25T00:31:23.090Z,0.14
2018-11-25T00:32:31.134Z,0.10
2018-11-25T00:33:39.199Z,-0.03
2018-11-25T00:34:47.282Z,0.08
2018-11-25T00:35:55.320Z,0.14
2018-11-25T00:37:03.341Z,0.11
2018-11-25T00:38:11.435Z,0.13
2018-11-25T00:39:19.463Z,0.10
2018-11-25T00:40:27.500Z,0.13
2018-11-25T00:41:35.598Z,0.04
2018-11-25T00:42:43.615Z,0.15
2018-11-25T00:43:51.714Z,0.11
2018-11-25T00:44:59.765Z,0.02
2018-11-25T00:46:07.854Z,0.10
2018-11-25T00:47:15.863Z,0.23
2018-11-25T00:48:23.898Z,0.13
2018-11-25T00:49:31.966Z,0.13
2018-11-25T00:50:40.038Z,0.15
2018-11-25T00:51:48.077Z,0.08
2018-11-25T00:52:56.140Z,0.14
2018-11-25T00:54:04.211Z,0.21
2018-11-25T00:55:12.268Z,0.15
2018-11-25T00:56:20.315Z,0.11
2018-11-25T00:57:28.355Z,0.08
2018-11-25T00:58:36.443Z,-0.05
2018-11-25T00:59:44.513Z,0.04
2018-11-25T01:00:52.563Z,0.00
2018-11-25T01:02:00.606Z,-0.01
2018-11-25T01:03:08.644Z,0.11
2018-11-25T01:04:16.722Z,0.02
2018-11-25T01:05:24.779Z,0.17
2018-11-25T01:06:32.816Z,-0.01
2018-11-25T01:07:40.875Z,0.11
2018-11-25T01:08:48.928Z,0.08
2018-11-25T01:09:56.991Z,0.07
2018-11-25T01:11:05.050Z,0.21
2018-11-25T01:12:13.104Z,0.10
2018-11-25T01:13:21.150Z,0.17
2018-11-25T01:14:29.235Z,0.10
2018-11-25T01:15:37.271Z,0.11
2018-11-25T01:16:45.323Z,0.11
2018-11-25T01:17:53.387Z,0.18
2018-11-25T01:19:01.441Z,0.07
2018-11-25T01:20:09.468Z,0.21
2018-11-25T01:21:17.589Z,0.07
2018-11-25T01:22:25.662Z,0.13
2018-11-25T01:23:33.690Z,0.21
2018-11-25T01:24:41.718Z,0.31
2018-11-25T01:25:49.784Z,0.41
2018-11-25T01:26:57.824Z,0.36
2018-11-25T01:28:05.884Z,0.42
2018-11-25T01:29:13.936Z,0.50
2018-11-25T01:30:21.990Z,0.51
2018-11-25T01:31:30.102Z,0.39
2018-11-25T01:32:38.094Z,0.53
2018-11-25T01:33:46.147Z,0.58
2018-11-25T01:35:00.843Z,0.61
2018-11-25T01:36:02.267Z,0.62
2018-11-25T01:37:10.322Z,0.58
2018-11-25T01:38:18.372Z,0.66
2018-11-25T01:39:26.424Z,0.66
2018-11-25T01:40:34.498Z,0.62
2018-11-25T01:41:42.570Z,0.58
2018-11-25T01:42:50.612Z,0.62
2018-11-25T01:43:58.650Z,0.61
2018-11-25T01:45:06.715Z,0.69
2018-11-25T01:46:14.776Z,0.72
2018-11-25T01:47:22.861Z,0.68
2018-11-25T01:48:30.884Z,0.68
2018-11-25T01:49:38.924Z,0.70
2018-11-25T01:50:47.011Z,0.58
2018-11-25T01:51:55.042Z,0.57
2018-11-25T01:53:03.111Z,0.57
2018-11-25T01:54:11.177Z,0.57
2018-11-25T01:55:19.231Z,0.60
2018-11-25T01:56:27.289Z,0.61
2018-11-25T01:57:35.319Z,0.66
2018-11-25T01:58:43.375Z,0.60
2018-11-25T01:59:51.439Z,0.57
2018-11-25T02:00:59.513Z,0.61
2018-11-25T02:02:07.570Z,0.55
2018-11-25T02:03:15.603Z,0.57
2018-11-25T02:04:23.657Z,0.55
2018-11-25T02:05:31.721Z,0.62
2018-11-25T02:06:39.790Z,0.57
2018-11-25T02:07:47.832Z,0.53
2018-11-25T02:08:55.886Z,0.55
2018-11-25T02:10:03.914Z,0.47
2018-11-25T02:11:12.042Z,0.49
2018-11-25T02:12:20.061Z,0.42
2018-11-25T02:13:28.138Z,0.42
2018-11-25T02:14:36.180Z,0.47
2018-11-25T02:15:44.252Z,0.51
2018-11-25T02:16:52.278Z,0.42
2018-11-25T02:18:00.368Z,0.38
2018-11-25T02:19:08.407Z,0.36
2018-11-25T02:20:16.486Z,0.38
2018-11-25T02:21:24.507Z,0.39
2018-11-25T02:22:32.582Z,0.39
2018-11-25T02:23:40.627Z,0.39
2018-11-25T02:24:48.702Z,0.26
2018-11-25T02:25:56.747Z,0.24
2018-11-25T02:27:04.805Z,0.24
2018-11-25T02:28:12.849Z,0.20
2018-11-25T02:29:20.893Z,0.18
2018-11-25T02:30:28.958Z,0.18
2018-11-25T02:31:37.025Z,0.11
2018-11-25T02:32:45.083Z,0.13
2018-11-25T02:33:53.133Z,0.04
2018-11-25T02:35:01.193Z,-0.07
2018-11-25T02:36:09.220Z,0.11
2018-11-25T02:37:17.316Z,0.11
2018-11-25T02:38:25.360Z,0.13
2018-11-25T02:39:33.399Z,0.13
2018-11-25T02:40:41.447Z,0.11
2018-11-25T02:41:49.556Z,0.10
2018-11-25T02:42:57.590Z,0.18
2018-11-25T02:44:05.617Z,0.08
2018-11-25T02:45:13.679Z,0.14
2018-11-25T02:46:21.777Z,0.10
2018-11-25T02:47:29.807Z,0.13
2018-11-25T02:48:37.875Z,0.11
2018-11-25T02:49:45.918Z,0.13
2018-11-25T02:50:53.946Z,0.04
2018-11-25T02:52:02.056Z,0.08
2018-11-25T02:53:10.076Z,-0.05
2018-11-25T02:54:18.130Z,0.00
2018-11-25T02:55:26.187Z,-0.04
2018-11-25T02:56:34.254Z,0.02
2018-11-25T02:57:42.314Z,0.07
2018-11-25T02:58:50.374Z,-0.03
2018-11-25T02:59:58.438Z,0.10
2018-11-25T03:01:06.477Z,0.08
2018-11-25T03:02:14.536Z,0.15
2018-11-25T03:03:22.639Z,-0.07
2018-11-25T03:04:30.672Z,-0.05
2018-11-25T03:05:38.749Z,-0.04
2018-11-25T03:06:46.762Z,0.11
2018-11-25T03:07:54.825Z,-0.05
2018-11-25T03:09:02.877Z,-0.05
2018-11-25T03:10:10.935Z,0.04
2018-11-25T03:11:18.998Z,-0.03
2018-11-25T03:12:27.028Z,0.07
2018-11-25T03:13:35.107Z,-0.01
2018-11-25T03:14:43.136Z,0.02
2018-11-25T03:15:51.204Z,-0.11
2018-11-25T03:16:59.270Z,-0.04
2018-11-25T03:18:07.342Z,-0.07
2018-11-25T03:19:15.386Z,-0.10
2018-11-25T03:20:23.423Z,-0.15
2018-11-25T03:21:31.530Z,-0.15
2018-11-25T03:22:39.550Z,-0.16
2018-11-25T03:23:47.610Z,-0.14
2018-11-25T03:24:55.669Z,-0.22
2018-11-25T03:26:03.712Z,-0.26
2018-11-25T03:27:11.768Z,-0.23
2018-11-25T03:28:19.823Z,-0.22
2018-11-25T03:29:27.918Z,-0.23
2018-11-25T03:30:36.065Z,-0.16
2018-11-25T03:31:43.992Z,-0.21
2018-11-25T03:32:52.062Z,-0.21
2018-11-25T03:34:00.112Z,-0.11
2018-11-25T03:35:08.159Z,-0.21
2018-11-25T03:36:16.216Z,-0.23
2018-11-25T03:37:24.247Z,-0.18
2018-11-25T03:38:32.326Z,-0.21
2018-11-25T03:39:40.393Z,-0.05
2018-11-25T03:40:48.450Z,-0.10
2018-11-25T03:41:56.488Z,-0.04
2018-11-25T03:43:04.550Z,-0.14
2018-11-25T03:44:12.606Z,-0.08
2018-11-25T03:45:20.663Z,-0.05
2018-11-25T03:46:28.718Z,-0.07
2018-11-25T03:47:36.777Z,-0.05
2018-11-25T03:48:44.828Z,-0.01
2018-11-25T03:49:52.913Z,0.04
2018-11-25T03:51:00.979Z,-0.11
2018-11-25T03:52:09.005Z,-0.10
2018-11-25T03:53:17.044Z,0.02
2018-11-25T03:54:25.131Z,-0.03
2018-11-25T03:55:33.168Z,-0.01
2018-11-25T03:56:41.233Z,0.02
2018-11-25T03:57:49.288Z,0.02
2018-11-25T03:58:57.327Z,0.07
2018-11-25T04:00:05.381Z,0.07
2018-11-25T04:01:13.458Z,0.00
2018-11-25T04:02:21.534Z,-0.08
2018-11-25T04:03:29.568Z,0.10
2018-11-25T04:04:37.617Z,0.00
2018-11-25T04:05:45.691Z,-0.03
2018-11-25T04:06:53.731Z,-0.07
2018-11-25T04:08:01.781Z,-0.05
2018-11-25T04:09:09.868Z,-0.07
2018-11-25T04:10:17.891Z,-0.15
2018-11-25T04:11:25.956Z,-0.10
2018-11-25T04:12:33.999Z,-0.04
2018-11-25T04:13:42.058Z,-0.14
2018-11-25T04:14:50.127Z,-0.10
2018-11-25T04:15:58.179Z,-0.14
2018-11-25T04:17:06.239Z,-0.07
2018-11-25T04:18:14.288Z,-0.11
2018-11-25T04:19:22.342Z,-0.11
2018-11-25T04:20:30.424Z,-0.14
2018-11-25T04:21:38.445Z,-0.16
2018-11-25T04:22:46.537Z,-0.10
2018-11-25T04:23:54.565Z,-0.07
2018-11-25T04:25:02.639Z,-0.15
2018-11-25T04:26:10.669Z,-0.11
2018-11-25T04:27:18.734Z,-0.16
2018-11-25T04:28:26.799Z,-0.15
2018-11-25T04:29:34.880Z,-0.21
2018-11-25T04:30:42.916Z,-0.25
2018-11-25T04:31:50.955Z,-0.19
2018-11-25T04:32:59.011Z,-0.16
2018-11-25T04:34:07.099Z,-0.18
2018-11-25T04:35:15.122Z,-0.25
2018-11-25T04:36:23.173Z,-0.33
2018-11-25T04:37:31.237Z,-0.33
2018-11-25T04:38:39.308Z,-0.28
2018-11-25T04:39:47.347Z,-0.31
2018-11-25T04:40:55.401Z,-0.28
2018-11-25T04:42:03.478Z,-0.31
2018-11-25T04:43:11.517Z,-0.31
2018-11-25T04:44:19.576Z,-0.34
2018-11-25T04:45:27.635Z,-0.33
2018-11-25T04:46:35.713Z,-0.34
2018-11-25T04:47:43.751Z,-0.33
2018-11-25T04:48:51.811Z,-0.42
2018-11-25T04:49:59.852Z,-0.42
2018-11-25T04:51:07.911Z,-0.31
2018-11-25T04:52:15.963Z,-0.34
2018-11-25T04:53:24.025Z,-0.36
2018-11-25T04:54:32.094Z,-0.43
2018-11-25T04:55:40.130Z,-0.52
2018-11-25T04:56:48.189Z,-0.47
2018-11-25T04:57:56.248Z,-0.44
2018-11-25T04:59:04.297Z,-0.42
2018-11-25T05:00:12.356Z,-0.43
2018-11-25T05:01:20.421Z,-0.44
2018-11-25T05:02:28.453Z,-0.43
2018-11-25T05:03:36.530Z,-0.42
2018-11-25T05:04:44.590Z,-0.42
2018-11-25T05:05:52.640Z,-0.42
2018-11-25T05:07:00.684Z,-0.25
2018-11-25T05:08:08.740Z,-0.37
2018-11-25T05:09:16.803Z,-0.36
2018-11-25T05:10:24.853Z,-0.40
2018-11-25T05:11:32.941Z,-0.40
2018-11-25T05:12:40.978Z,-0.49
2018-11-25T05:13:49.015Z,-0.57
2018-11-25T05:14:57.101Z,-0.47
2018-11-25T05:16:05.142Z,-0.58
2018-11-25T05:17:13.184Z,-0.49
2018-11-25T05:18:21.231Z,-0.51
2018-11-25T05:19:29.305Z,-0.51
2018-11-25T05:20:37.351Z,-0.49
2018-11-25T05:21:45.410Z,-0.58
2018-11-25T05:22:53.486Z,-0.46
2018-11-25T05:24:01.524Z,-0.55
2018-11-25T05:25:09.589Z,-0.58
2018-11-25T05:26:17.636Z,-0.52
2018-11-25T05:27:25.692Z,-0.43
2018-11-25T05:28:33.749Z,-0.44
2018-11-25T05:29:41.799Z,-0.44
2018-11-25T05:30:49.858Z,-0.51
2018-11-25T05:31:57.911Z,-0.54
2018-11-25T05:33:06.002Z,-0.49
2018-11-25T05:34:14.031Z,-0.55
2018-11-25T05:35:22.099Z,-0.51
2018-11-25T05:36:30.133Z,-0.49
2018-11-25T05:37:38.188Z,-0.44
2018-11-25T05:38:46.265Z,-0.58
2018-11-25T05:39:54.339Z,-0.42
2018-11-25T05:41:02.411Z,-0.49
2018-11-25T05:42:10.413Z,-0.46
2018-11-25T05:43:18.464Z,-0.43
2018-11-25T05:44:26.565Z,-0.39
2018-11-25T05:45:34.581Z,-0.47
2018-11-25T05:46:42.645Z,-0.37
2018-11-25T05:47:50.742Z,-0.34
2018-11-25T05:48:58.751Z,-0.29
2018-11-25T05:50:06.810Z,-0.43
2018-11-25T05:51:14.878Z,-0.39
2018-11-25T05:52:23.356Z,-0.29
2018-11-25T05:53:30.959Z,-0.28
2018-11-25T05:54:39.015Z,-0.34
2018-11-25T05:55:47.417Z,-0.34
2018-11-25T05:56:55.311Z,-0.42
2018-11-25T05:58:03.180Z,-0.43
2018-11-25T05:59:11.238Z,-0.29
2018-11-25T06:00:19.311Z,-0.34
2018-11-25T06:01:27.383Z,-0.28
2018-11-25T06:02:35.409Z,-0.29
2018-11-25T06:03:43.482Z,-0.34
2018-11-25T06:04:51.510Z,-0.26
2018-11-25T06:05:59.878Z,-0.28
2018-11-25T06:07:07.640Z,-0.37
2018-11-25T06:08:15.677Z,-0.29
2018-11-25T06:09:23.719Z,-0.26
2018-11-25T06:10:31.793Z,-0.25
2018-11-25T06:11:40.103Z,-0.22
2018-11-25T06:12:48.443Z,-0.21
2018-11-25T06:13:55.953Z,-0.26
2018-11-25T06:15:04.010Z,-0.25
2018-11-25T06:16:12.071Z,-0.25
2018-11-25T06:17:20.131Z,-0.14
2018-11-25T06:18:28.203Z,-0.15
2018-11-25T06:19:36.230Z,-0.16
2018-11-25T06:20:44.319Z,-0.11
2018-11-25T06:21:52.337Z,-0.11
2018-11-25T06:23:00.434Z,-0.08
2018-11-25T06:24:08.435Z,-0.07
2018-11-25T06:25:16.512Z,-0.08
2018-11-25T06:26:24.590Z,-0.14
2018-11-25T06:27:38.001Z,-0.10
2018-11-25T06:28:40.661Z,-0.07
2018-11-25T06:29:48.727Z,-0.10
2018-11-25T06:30:56.771Z,-0.08
2018-11-25T06:32:04.844Z,-0.11
2018-11-25T06:33:12.930Z,-0.03
2018-11-25T06:34:20.945Z,-0.01
2018-11-25T06:35:29.001Z,-0.15
2018-11-25T06:36:37.062Z,-0.04
2018-11-25T06:37:45.106Z,-0.04
2018-11-25T06:38:53.173Z,-0.07
2018-11-25T06:40:01.232Z,-0.08
2018-11-25T06:41:10.141Z,-0.18
2018-11-25T06:42:17.344Z,-0.11
2018-11-25T06:43:25.408Z,-0.23
2018-11-25T06:44:33.438Z,-0.16
2018-11-25T06:45:41.865Z,-0.21
2018-11-25T06:46:49.568Z,-0.14
2018-11-25T06:47:57.647Z,-0.15
2018-11-25T06:49:05.667Z,-0.21
2018-11-25T06:50:13.698Z,-0.25
2018-11-25T06:51:21.784Z,-0.19
2018-11-25T06:52:29.836Z,-0.21
2018-11-25T06:53:38.026Z,-0.16
2018-11-25T06:54:45.954Z,-0.08
2018-11-25T06:55:54.651Z,-0.10
2018-11-25T06:57:02.210Z,-0.08
2018-11-25T06:58:10.577Z,-0.15
2018-11-25T06:59:18.757Z,-0.15
2018-11-25T07:00:26.219Z,-0.16
2018-11-25T07:01:34.943Z,-0.10
2018-11-25T07:02:42.571Z,-0.16
2018-11-25T07:03:50.392Z,-0.21
2018-11-25T07:04:58.459Z,-0.15
2018-11-25T07:06:06.504Z,-0.14
2018-11-25T07:07:14.996Z,-0.08
2018-11-25T07:08:23.252Z,-0.10
2018-11-25T07:09:30.669Z,-0.05
2018-11-25T07:10:39.309Z,-0.05
2018-11-25T07:11:46.770Z,-0.14
2018-11-25T07:12:54.837Z,-0.01
2018-11-25T07:14:03.427Z,0.03
2018-11-25T07:15:10.935Z,0.13
2018-11-25T07:16:19.652Z,0.11
2018-11-25T07:17:27.140Z,0.17
2018-11-25T07:18:35.735Z,0.15
2018-11-25T07:19:43.173Z,0.29
2018-11-25T07:20:51.467Z,0.44
2018-11-25T07:21:59.315Z,0.46
2018-11-25T07:23:07.327Z,0.50
2018-11-25T07:24:15.399Z,0.75
2018-11-25T07:25:23.756Z,0.88
2018-11-25T07:26:31.483Z,0.91
2018-11-25T07:27:39.922Z,1.02
2018-11-25T07:28:47.762Z,1.04
2018-11-25T07:29:55.967Z,1.15
2018-11-25T07:31:03.998Z,1.36
2018-11-25T07:32:12.098Z,1.51
2018-11-25T07:33:20.082Z,1.81
2018-11-25T07:34:27.882Z,1.62
2018-11-25T07:35:35.942Z,1.65
2018-11-25T07:36:44.060Z,1.81
2018-11-25T07:37:52.643Z,1.98
2018-11-25T07:39:00.126Z,1.91
2018-11-25T07:40:08.339Z,2.02
2018-11-25T07:41:16.273Z,1.95
2018-11-25T07:42:24.367Z,2.03
2018-11-25T07:43:32.725Z,1.99
2018-11-25T07:44:40.394Z,2.24
2018-11-25T07:45:48.947Z,2.36
2018-11-25T07:46:56.564Z,2.23
2018-11-25T07:48:04.632Z,2.41
2018-11-25T07:49:13.083Z,2.28
2018-11-25T07:50:20.671Z,2.41
2018-11-25T07:51:28.716Z,2.52
2018-11-25T07:52:37.211Z,2.74
2018-11-25T07:53:44.843Z,2.79
2018-11-25T07:54:52.905Z,2.66
2018-11-25T07:56:01.145Z,2.90
2018-11-25T07:57:09.255Z,2.87
2018-11-25T07:58:17.063Z,2.82
2018-11-25T07:59:25.112Z,2.93
2018-11-25T08:00:33.265Z,2.84
2018-11-25T08:01:41.379Z,2.93
2018-11-25T08:02:49.318Z,2.96
2018-11-25T08:03:57.318Z,2.97
2018-11-25T08:05:05.426Z,3.00
2018-11-25T08:06:13.450Z,2.96
2018-11-25T08:07:21.640Z,3.13
2018-11-25T08:08:29.903Z,3.20
2018-11-25T08:09:37.628Z,3.24
2018-11-25T08:10:45.688Z,3.36
2018-11-25T08:11:53.727Z,3.35
2018-11-25T08:13:01.825Z,3.48
2018-11-25T08:14:09.873Z,3.50
2018-11-25T08:15:17.911Z,3.47
2018-11-25T08:16:25.992Z,3.47
2018-11-25T08:17:34.040Z,3.62
2018-11-25T08:18:42.093Z,3.73
2018-11-25T08:19:50.132Z,3.93
2018-11-25T08:20:58.287Z,3.96
2018-11-25T08:22:06.250Z,4.02
2018-11-25T08:23:15.570Z,4.05
2018-11-25T08:24:22.365Z,3.88
2018-11-25T08:25:30.457Z,3.93
2018-11-25T08:26:38.493Z,3.96
2018-11-25T08:27:46.762Z,3.93
2018-11-25T08:28:54.688Z,3.93
2018-11-25T08:30:02.824Z,3.93
2018-11-25T08:31:10.744Z,3.86
2018-11-25T08:32:18.790Z,3.97
2018-11-25T08:33:26.915Z,4.00
2018-11-25T08:34:34.885Z,3.94
2018-11-25T08:35:42.928Z,4.09
2018-11-25T08:36:51.037Z,4.14
2018-11-25T08:37:59.054Z,4.23
2018-11-25T08:39:07.118Z,4.22
2018-11-25T08:40:15.164Z,4.29
2018-11-25T08:41:23.223Z,4.27
2018-11-25T08:42:31.295Z,4.23
2018-11-25T08:43:39.357Z,4.20
2018-11-25T08:44:47.425Z,4.16
2018-11-25T08:45:55.575Z,4.11
2018-11-25T08:47:06.631Z,4.23
2018-11-25T08:48:11.606Z,4.16
2018-11-25T08:49:19.814Z,4.29
2018-11-25T08:50:28.139Z,4.37
2018-11-25T08:51:36.586Z,4.34
2018-11-25T08:52:43.931Z,4.40
2018-11-25T08:53:52.246Z,4.45
2018-11-25T08:55:00.525Z,4.51
2018-11-25T08:56:08.334Z,4.55
2018-11-25T08:57:16.491Z,4.60
2018-11-25T08:58:24.436Z,4.62
2018-11-25T08:59:32.562Z,4.54
2018-11-25T09:00:40.237Z,4.58
2018-11-25T09:01:48.584Z,4.60
2018-11-25T09:02:56.326Z,4.60
2018-11-25T09:04:04.389Z,4.62
2018-11-25T09:05:12.447Z,4.59
2018-11-25T09:06:20.521Z,4.62
2018-11-25T09:07:28.644Z,4.63
2018-11-25T09:08:36.625Z,4.72
2018-11-25T09:09:45.044Z,4.77
2018-11-25T09:10:52.765Z,4.77
2018-11-25T09:12:00.787Z,4.82
2018-11-25T09:13:08.864Z,4.80
2018-11-25T09:14:16.935Z,4.82
2018-11-25T09:15:24.987Z,4.88
2018-11-25T09:16:33.035Z,4.99
2018-11-25T09:17:41.095Z,5.02
2018-11-25T09:18:49.178Z,5.09
2018-11-25T09:19:57.228Z,5.17
2018-11-25T09:21:05.286Z,5.22
2018-11-25T09:22:13.341Z,5.30
2018-11-25T09:23:21.392Z,5.21
2018-11-25T09:24:29.464Z,5.30
2018-11-25T09:25:37.506Z,5.31
2018-11-25T09:26:45.564Z,5.40
2018-11-25T09:27:53.612Z,5.38
2018-11-25T09:29:01.680Z,5.42
2018-11-25T09:30:09.779Z,5.51
2018-11-25T09:31:17.810Z,5.57
2018-11-25T09:32:25.862Z,5.51
2018-11-25T09:33:33.903Z,5.67
2018-11-25T09:34:41.981Z,5.60
2018-11-25T09:35:50.044Z,5.65
2018-11-25T09:36:58.127Z,5.68
2018-11-25T09:38:06.180Z,5.76
2018-11-25T09:39:14.196Z,5.75
2018-11-25T09:40:22.281Z,5.79
2018-11-25T09:41:30.339Z,5.76
2018-11-25T09:42:38.372Z,5.82
2018-11-25T09:43:46.475Z,5.89
2018-11-25T09:44:54.512Z,5.97
2018-11-25T09:46:02.564Z,5.89
2018-11-25T09:47:10.633Z,6.03
2018-11-25T09:48:18.697Z,6.06
2018-11-25T09:49:26.748Z,6.01
2018-11-25T09:50:34.814Z,6.14
2018-11-25T09:51:42.885Z,6.14
2018-11-25T09:52:50.928Z,6.12
2018-11-25T09:53:58.991Z,6.28
2018-11-25T09:55:07.052Z,6.25
2018-11-25T09:56:15.110Z,6.19
2018-11-25T09:57:23.180Z,6.22
2018-11-25T09:58:31.215Z,6.17
2018-11-25T09:59:39.296Z,6.03
2018-11-25T10:00:47.342Z,6.03
2018-11-25T10:01:55.405Z,5.94
2018-11-25T10:03:03.481Z,5.93
2018-11-25T10:04:11.549Z,5.90
2018-11-25T10:05:19.612Z,5.76
2018-11-25T10:06:27.646Z,5.74
2018-11-25T10:07:35.718Z,5.67
2018-11-25T10:08:43.752Z,5.67
2018-11-25T10:09:51.824Z,5.74
2018-11-25T10:10:59.876Z,5.72
2018-11-25T10:12:07.945Z,5.65
2018-11-25T10:13:16.034Z,5.74
2018-11-25T10:14:24.052Z,5.58
2018-11-25T10:15:32.127Z,5.65
2018-11-25T10:16:40.168Z,5.57
2018-11-25T10:17:48.260Z,5.68
2018-11-25T10:18:56.313Z,5.61
2018-11-25T10:20:04.361Z,5.67
2018-11-25T10:21:12.425Z,5.79
2018-11-25T10:22:20.513Z,5.76
2018-11-25T10:23:28.541Z,5.79
2018-11-25T10:24:36.619Z,5.94
2018-11-25T10:25:44.652Z,5.89
2018-11-25T10:26:52.742Z,5.91
2018-11-25T10:28:00.788Z,5.96
2018-11-25T10:29:08.843Z,5.96
2018-11-25T10:30:16.917Z,5.97
2018-11-25T10:31:24.963Z,6.04
2018-11-25T10:32:33.032Z,6.09
2018-11-25T10:33:41.096Z,6.00
2018-11-25T10:34:49.141Z,6.09
2018-11-25T10:35:57.271Z,6.09
2018-11-25T10:37:05.253Z,6.06
2018-11-25T10:38:13.316Z,5.99
2018-11-25T10:39:21.393Z,6.03
2018-11-25T10:40:29.459Z,5.99
2018-11-25T10:41:37.489Z,5.99
2018-11-25T10:42:45.572Z,6.09
2018-11-25T10:43:53.624Z,6.15
2018-11-25T10:45:01.718Z,6.28
2018-11-25T10:46:09.734Z,6.12
2018-11-25T10:47:17.805Z,6.27
2018-11-25T10:48:25.864Z,6.34
2018-11-25T10:49:33.921Z,6.19
2018-11-25T10:50:41.993Z,6.37
2018-11-25T10:51:50.056Z,6.15
2018-11-25T10:52:58.200Z,6.28
2018-11-25T10:54:06.160Z,6.36
2018-11-25T10:55:14.209Z,6.33
2018-11-25T10:56:22.283Z,6.33
2018-11-25T10:57:30.349Z,6.36
2018-11-25T10:58:38.408Z,6.30
2018-11-25T10:59:46.478Z,6.31
2018-11-25T11:00:54.514Z,6.21
2018-11-25T11:02:02.593Z,6.33
2018-11-25T11:03:10.651Z,6.28
2018-11-25T11:04:18.726Z,6.27
2018-11-25T11:05:26.795Z,6.37
2018-11-25T11:06:34.832Z,6.46
2018-11-25T11:07:42.901Z,6.52
2018-11-25T11:08:50.957Z,6.48
2018-11-25T11:09:59.012Z,6.54
2018-11-25T11:11:07.084Z,6.44
2018-11-25T11:12:15.119Z,6.44
2018-11-25T11:13:23.181Z,6.64
2018-11-25T11:14:31.266Z,6.58
2018-11-25T11:15:39.308Z,6.36
2018-11-25T11:16:53.762Z,6.33
2018-11-25T11:17:55.432Z,6.01
2018-11-25T11:19:03.506Z,5.91
2018-11-25T11:20:11.563Z,6.00
2018-11-25T11:21:19.617Z,6.09
2018-11-25T11:22:27.661Z,6.15
2018-11-25T11:23:35.746Z,6.30
2018-11-25T11:24:43.814Z,6.41
2018-11-25T11:25:51.880Z,6.33
2018-11-25T11:26:59.919Z,6.22
2018-11-25T11:28:07.997Z,6.30
2018-11-25T11:29:16.045Z,6.14
2018-11-25T11:30:24.088Z,6.15
2018-11-25T11:31:32.146Z,6.03
2018-11-25T11:32:40.237Z,6.04
2018-11-25T11:33:48.273Z,6.09
2018-11-25T11:34:56.338Z,6.37
2018-11-25T11:36:04.392Z,6.34
2018-11-25T11:37:12.450Z,6.40
2018-11-25T11:38:20.522Z,6.40
2018-11-25T11:39:28.579Z,6.46
2018-11-25T11:40:36.640Z,6.44
2018-11-25T11:41:44.724Z,6.48
2018-11-25T11:42:52.769Z,6.49
2018-11-25T11:44:00.846Z,6.66
2018-11-25T11:45:08.889Z,6.61
2018-11-25T11:46:16.954Z,6.69
2018-11-25T11:47:25.036Z,6.76
2018-11-25T11:48:33.080Z,6.62
2018-11-25T11:49:41.132Z,6.62
2018-11-25T11:50:49.207Z,6.34
2018-11-25T11:51:57.256Z,6.37
2018-11-25T11:53:05.320Z,6.33
2018-11-25T11:54:13.417Z,6.38
2018-11-25T11:55:21.441Z,6.54
2018-11-25T11:56:29.519Z,6.66
2018-11-25T11:57:37.680Z,6.56
2018-11-25T11:58:45.628Z,6.67
2018-11-25T11:59:53.684Z,6.76
2018-11-25T12:01:01.774Z,6.84
2018-11-25T12:02:09.811Z,6.91
2018-11-25T12:03:26.096Z,7.03
2018-11-25T12:04:28.564Z,7.02
2018-11-25T12:05:36.709Z,6.89
2018-11-25T12:06:44.656Z,7.02
2018-11-25T12:07:52.734Z,7.12
2018-11-25T12:09:00.763Z,7.12
2018-11-25T12:10:08.847Z,7.23
2018-11-25T12:11:16.900Z,7.31
2018-11-25T12:12:24.961Z,7.30
2018-11-25T12:13:33.023Z,7.39
2018-11-25T12:14:41.098Z,7.32
2018-11-25T12:15:49.619Z,7.37
2018-11-25T12:16:57.200Z,7.45
2018-11-25T12:18:05.243Z,7.34
2018-11-25T12:19:13.318Z,7.42
2018-11-25T12:20:21.605Z,7.42
2018-11-25T12:21:29.438Z,7.31
2018-11-25T12:22:37.763Z,7.45
2018-11-25T12:23:45.565Z,7.52
2018-11-25T12:24:53.623Z,7.49
2018-11-25T12:26:01.710Z,7.71
2018-11-25T12:27:09.731Z,7.60
2018-11-25T12:28:17.817Z,7.60
2018-11-25T12:29:25.873Z,7.69
2018-11-25T12:30:33.940Z,7.63
2018-11-25T12:31:41.991Z,7.72
2018-11-25T12:32:50.047Z,7.75
2018-11-25T12:33:58.102Z,7.86
2018-11-25T12:35:06.167Z,7.82
2018-11-25T12:36:14.262Z,7.89
2018-11-25T12:37:22.274Z,7.77
2018-11-25T12:38:30.350Z,7.83
2018-11-25T12:39:38.408Z,7.80
2018-11-25T12:40:46.455Z,7.74
2018-11-25T12:41:54.520Z,7.86
2018-11-25T12:43:02.632Z,7.89
2018-11-25T12:44:10.652Z,7.86
2018-11-25T12:45:18.714Z,7.89
2018-11-25T12:46:26.765Z,7.72
2018-11-25T12:47:34.827Z,7.58
2018-11-25T12:48:42.885Z,7.60
2018-11-25T12:49:50.932Z,7.58
2018-11-25T12:50:59.011Z,7.57
2018-11-25T12:52:07.051Z,7.61
2018-11-25T12:53:15.140Z,7.50
2018-11-25T12:54:27.673Z,7.61
2018-11-25T12:55:32.662Z,7.34
2018-11-25T12:56:40.715Z,7.43
2018-11-25T12:57:48.762Z,7.32
2018-11-25T12:58:56.844Z,7.25
2018-11-25T13:00:04.903Z,7.27
2018-11-25T13:01:12.956Z,7.37
2018-11-25T13:02:21.013Z,7.34
2018-11-25T13:03:29.072Z,7.30
2018-11-25T13:04:37.125Z,7.13
2018-11-25T13:05:46.068Z,7.15
2018-11-25T13:06:53.238Z,7.21
2018-11-25T13:08:01.296Z,7.27
2018-11-25T13:09:09.380Z,7.25
2018-11-25T13:10:17.436Z,7.31
2018-11-25T13:11:25.487Z,7.37
2018-11-25T13:12:33.562Z,7.42
2018-11-25T13:13:41.625Z,7.37
2018-11-25T13:14:49.674Z,7.43
2018-11-25T13:15:57.761Z,7.49
2018-11-25T13:17:05.785Z,7.52
2018-11-25T13:18:13.860Z,7.55
2018-11-25T13:19:21.936Z,7.35
2018-11-25T13:20:29.989Z,7.50
2018-11-25T13:21:38.040Z,7.52
2018-11-25T13:22:46.077Z,7.49
2018-11-25T13:23:54.128Z,7.57
2018-11-25T13:25:02.226Z,7.49
2018-11-25T13:26:10.273Z,7.61
2018-11-25T13:27:18.347Z,7.61
2018-11-25T13:28:26.394Z,7.53
2018-11-25T13:29:34.455Z,7.37
2018-11-25T13:30:42.592Z,7.45
2018-11-25T13:31:50.640Z,7.53
2018-11-25T13:32:58.665Z,7.58
2018-11-25T13:34:06.676Z,7.53
2018-11-25T13:35:14.733Z,7.42
2018-11-25T13:36:22.842Z,7.32
2018-11-25T13:37:30.896Z,7.16
2018-11-25T13:38:38.942Z,7.12
2018-11-25T13:39:46.996Z,7.15
2018-11-25T13:40:55.089Z,7.24
2018-11-25T13:42:03.137Z,7.07
2018-11-25T13:43:11.173Z,7.13
2018-11-25T13:44:19.250Z,7.13
2018-11-25T13:45:27.306Z,7.05
2018-11-25T13:46:35.374Z,6.95
2018-11-25T13:47:43.418Z,6.74
2018-11-25T13:48:51.486Z,6.79
2018-11-25T13:49:59.571Z,6.66
2018-11-25T13:51:07.627Z,6.64
2018-11-25T13:52:15.661Z,6.62
2018-11-25T13:53:23.714Z,6.54
2018-11-25T13:54:31.779Z,6.44
2018-11-25T13:55:39.930Z,6.33
2018-11-25T13:56:47.883Z,6.19
2018-11-25T13:57:55.982Z,6.21
2018-11-25T13:59:04.032Z,6.15
2018-11-25T14:00:12.119Z,6.06
2018-11-25T14:01:20.166Z,5.83
2018-11-25T14:02:28.206Z,5.76
2018-11-25T14:03:36.312Z,5.58
2018-11-25T14:04:44.351Z,5.58
2018-11-25T14:05:52.954Z,5.48
2018-11-25T14:07:00.479Z,5.39
2018-11-25T14:08:08.522Z,5.43
2018-11-25T14:09:16.566Z,5.46
2018-11-25T14:10:24.649Z,5.30
2018-11-25T14:11:32.978Z,5.43
2018-11-25T14:12:40.763Z,5.33
2018-11-25T14:13:48.787Z,5.17
2018-11-25T14:14:56.865Z,5.12
2018-11-25T14:16:04.923Z,5.17
2018-11-25T14:17:12.963Z,5.17
2018-11-25T14:18:21.034Z,5.12
2018-11-25T14:19:29.097Z,4.97
2018-11-25T14:20:37.157Z,4.97
2018-11-25T14:21:45.206Z,5.04
2018-11-25T14:22:53.281Z,4.86
2018-11-25T14:24:01.333Z,4.80
2018-11-25T14:25:09.405Z,4.78
2018-11-25T14:26:17.460Z,4.78
2018-11-25T14:27:25.530Z,4.77
2018-11-25T14:28:33.600Z,4.72
2018-11-25T14:29:41.636Z,4.54
2018-11-25T14:30:49.724Z,4.44
2018-11-25T14:31:57.745Z,4.32
2018-11-25T14:33:05.822Z,4.29
2018-11-25T14:34:13.904Z,4.26
2018-11-25T14:35:21.937Z,4.16
2018-11-25T14:36:30.021Z,4.18
2018-11-25T14:37:38.057Z,4.16
2018-11-25T14:38:46.121Z,4.14
2018-11-25T14:39:54.204Z,4.15
2018-11-25T14:41:02.237Z,4.05
2018-11-25T14:42:10.321Z,4.12
2018-11-25T14:43:18.375Z,4.12
2018-11-25T14:44:26.420Z,4.04
2018-11-25T14:45:34.470Z,3.91
2018-11-25T14:46:42.546Z,4.09
2018-11-25T14:47:50.612Z,4.05
2018-11-25T14:48:58.663Z,3.87
2018-11-25T14:50:06.723Z,3.73
2018-11-25T14:51:14.809Z,3.60
2018-11-25T14:52:22.828Z,3.60
2018-11-25T14:53:30.907Z,3.48
2018-11-25T14:54:38.939Z,3.50
2018-11-25T14:55:47.038Z,3.62
2018-11-25T14:56:55.060Z,3.51